sensor_id;sensor_type;location;lat;lon;timestamp;pressure;altitude;pressure_sealevel;temperature;humidity
54806;BME280;62866;55.776;37.496;2023-03-22T00:01:19;99266.78;;;5.61;79.73
54806;BME280;62866;55.776;37.496;2023-03-22T00:03:46;99268.97;;;5.58;79.31
54806;BME280;62866;55.776;37.496;2023-03-22T00:06:12;99275.41;;;5.55;79.75
54806;BME280;62866;55.776;37.496;2023-03-22T00:08:38;99261.00;;;5.58;79.67
54806;BME280;62866;55.776;37.496;2023-03-22T00:11:04;99269.44;;;5.53;80.29
54806;BME280;62866;55.776;37.496;2023-03-22T00:13:32;99265.47;;;5.57;80.14
54806;BME280;62866;55.776;37.496;2023-03-22T00:15:58;99260.84;;;5.51;80.11
54806;BME280;62866;55.776;37.496;2023-03-22T00:18:24;99266.47;;;5.48;80.07
54806;BME280;62866;55.776;37.496;2023-03-22T00:20:52;99267.16;;;5.42;80.60
54806;BME280;62866;55.776;37.496;2023-03-22T00:23:18;99265.81;;;5.54;80.31
54806;BME280;62866;55.776;37.496;2023-03-22T00:25:45;99266.78;;;5.61;80.18
54806;BME280;62866;55.776;37.496;2023-03-22T00:28:11;99258.00;;;5.61;79.98
54806;BME280;62866;55.776;37.496;2023-03-22T00:30:37;99268.28;;;5.64;79.86
54806;BME280;62866;55.776;37.496;2023-03-22T00:33:03;99272.59;;;5.65;79.37
54806;BME280;62866;55.776;37.496;2023-03-22T00:35:29;99274.94;;;5.60;79.50
54806;BME280;62866;55.776;37.496;2023-03-22T00:37:54;99269.63;;;5.60;79.56
54806;BME280;62866;55.776;37.496;2023-03-22T00:40:20;99285.16;;;5.71;80.03
54806;BME280;62866;55.776;37.496;2023-03-22T00:42:45;99277.19;;;5.71;79.63
54806;BME280;62866;55.776;37.496;2023-03-22T00:45:11;99290.63;;;5.69;79.93
54806;BME280;62866;55.776;37.496;2023-03-22T00:47:37;99288.81;;;5.70;79.12
54806;BME280;62866;55.776;37.496;2023-03-22T00:50:04;99297.28;;;5.65;79.41
54806;BME280;62866;55.776;37.496;2023-03-22T00:52:31;99293.13;;;5.63;79.79
54806;BME280;62866;55.776;37.496;2023-03-22T00:54:56;99283.88;;;5.59;79.64
54806;BME280;62866;55.776;37.496;2023-03-22T00:57:22;99291.66;;;5.60;80.08
54806;BME280;62866;55.776;37.496;2023-03-22T00:59:48;99297.94;;;5.67;79.69
54806;BME280;62866;55.776;37.496;2023-03-22T01:02:14;99292.47;;;5.69;79.82
54806;BME280;62866;55.776;37.496;2023-03-22T01:04:41;99302.59;;;5.65;79.94
54806;BME280;62866;55.776;37.496;2023-03-22T01:07:16;99307.88;;;5.73;80.00
54806;BME280;62866;55.776;37.496;2023-03-22T01:09:49;99302.72;;;5.80;79.42
54806;BME280;62866;55.776;37.496;2023-03-22T01:12:16;99310.00;;;5.78;79.27
54806;BME280;62866;55.776;37.496;2023-03-22T01:14:42;99308.88;;;5.64;79.62
54806;BME280;62866;55.776;37.496;2023-03-22T01:17:08;99314.34;;;5.55;79.52
54806;BME280;62866;55.776;37.496;2023-03-22T01:19:35;99311.53;;;5.64;80.10
54806;BME280;62866;55.776;37.496;2023-03-22T01:22:02;99315.53;;;5.68;79.80
54806;BME280;62866;55.776;37.496;2023-03-22T01:24:28;99320.63;;;5.70;79.44
54806;BME280;62866;55.776;37.496;2023-03-22T01:26:54;99302.06;;;5.62;79.22
54806;BME280;62866;55.776;37.496;2023-03-22T01:29:21;99303.09;;;5.45;79.49
54806;BME280;62866;55.776;37.496;2023-03-22T01:31:46;99316.19;;;5.54;79.92
54806;BME280;62866;55.776;37.496;2023-03-22T01:34:12;99340.41;;;5.59;80.20
54806;BME280;62866;55.776;37.496;2023-03-22T01:36:38;99332.75;;;5.64;79.83
54806;BME280;62866;55.776;37.496;2023-03-22T01:39:03;99344.88;;;5.59;80.00
54806;BME280;62866;55.776;37.496;2023-03-22T01:41:29;99341.53;;;5.57;79.79
54806;BME280;62866;55.776;37.496;2023-03-22T01:44:15;99356.94;;;5.53;80.15
54806;BME280;62866;55.776;37.496;2023-03-22T01:46:42;99359.28;;;5.56;79.99
54806;BME280;62866;55.776;37.496;2023-03-22T01:49:13;99350.81;;;5.53;80.33
54806;BME280;62866;55.776;37.496;2023-03-22T01:51:40;99348.84;;;5.47;80.57
54806;BME280;62866;55.776;37.496;2023-03-22T01:54:15;99350.19;;;5.51;80.30
54806;BME280;62866;55.776;37.496;2023-03-22T01:56:43;99354.97;;;5.55;80.07
54806;BME280;62866;55.776;37.496;2023-03-22T01:59:11;99304.63;;;5.23;79.67
54806;BME280;62866;55.776;37.496;2023-03-22T02:01:38;99357.13;;;5.52;80.08
54806;BME280;62866;55.776;37.496;2023-03-22T02:04:12;99366.09;;;5.51;80.34
54806;BME280;62866;55.776;37.496;2023-03-22T02:06:39;99353.66;;;5.51;80.40
54806;BME280;62866;55.776;37.496;2023-03-22T02:09:07;99366.09;;;5.59;80.41
54806;BME280;62866;55.776;37.496;2023-03-22T02:11:36;99361.94;;;5.48;80.69
54806;BME280;62866;55.776;37.496;2023-03-22T02:22:39;99368.91;;;5.49;80.52
54806;BME280;62866;55.776;37.496;2023-03-22T02:39:24;99393.91;;;5.39;80.47
54806;BME280;62866;55.776;37.496;2023-03-22T02:42:47;99391.94;;;5.32;80.98
54806;BME280;62866;55.776;37.496;2023-03-22T02:52:45;99409.13;;;5.28;80.79
54806;BME280;62866;55.776;37.496;2023-03-22T02:57:47;99417.28;;;5.19;81.26
54806;BME280;62866;55.776;37.496;2023-03-22T03:00:16;99418.25;;;5.18;81.76
54806;BME280;62866;55.776;37.496;2023-03-22T03:02:47;99409.13;;;5.12;81.79
54806;BME280;62866;55.776;37.496;2023-03-22T03:05:16;99421.91;;;5.17;82.17
54806;BME280;62866;55.776;37.496;2023-03-22T03:07:47;99419.41;;;5.15;81.87
54806;BME280;62866;55.776;37.496;2023-03-22T03:10:16;99427.50;;;5.14;81.63
54806;BME280;62866;55.776;37.496;2023-03-22T03:12:43;99426.00;;;5.11;81.72
54806;BME280;62866;55.776;37.496;2023-03-22T03:15:16;99429.00;;;5.16;81.60
54806;BME280;62866;55.776;37.496;2023-03-22T03:18:08;99427.19;;;5.17;81.90
54806;BME280;62866;55.776;37.496;2023-03-22T03:21:00;99416.06;;;5.05;82.61
54806;BME280;62866;55.776;37.496;2023-03-22T03:23:44;99427.03;;;5.10;82.16
54806;BME280;62866;55.776;37.496;2023-03-22T03:26:44;99442.72;;;5.12;82.42
54806;BME280;62866;55.776;37.496;2023-03-22T03:32:13;99451.34;;;5.14;82.22
54806;BME280;62866;55.776;37.496;2023-03-22T03:35:11;99451.72;;;5.19;82.81
54806;BME280;62866;55.776;37.496;2023-03-22T03:37:52;99457.16;;;5.09;81.83
54806;BME280;62866;55.776;37.496;2023-03-22T03:40:30;99431.44;;;4.93;82.38
54806;BME280;62866;55.776;37.496;2023-03-22T03:43:01;99454.66;;;5.08;82.16
54806;BME280;62866;55.776;37.496;2023-03-22T03:45:27;99463.56;;;4.99;82.16
54806;BME280;62866;55.776;37.496;2023-03-22T03:47:58;99459.13;;;5.07;82.89
54806;BME280;62866;55.776;37.496;2023-03-22T03:50:25;99465.25;;;5.08;82.92
54806;BME280;62866;55.776;37.496;2023-03-22T03:52:52;99473.06;;;5.09;82.47
54806;BME280;62866;55.776;37.496;2023-03-22T03:55:19;99476.72;;;5.16;82.17
54806;BME280;62866;55.776;37.496;2023-03-22T03:57:45;99472.56;;;5.22;82.37
54806;BME280;62866;55.776;37.496;2023-03-22T04:00:11;99483.34;;;5.28;81.96
54806;BME280;62866;55.776;37.496;2023-03-22T04:02:39;99482.88;;;5.33;82.18
54806;BME280;62866;55.776;37.496;2023-03-22T04:05:06;99485.53;;;5.33;81.99
54806;BME280;62866;55.776;37.496;2023-03-22T04:07:33;99483.38;;;5.37;81.76
54806;BME280;62866;55.776;37.496;2023-03-22T04:09:58;99490.19;;;5.39;81.37
54806;BME280;62866;55.776;37.496;2023-03-22T04:12:24;99487.22;;;5.42;81.14
54806;BME280;62866;55.776;37.496;2023-03-22T04:14:50;99497.13;;;5.32;80.88
54806;BME280;62866;55.776;37.496;2023-03-22T04:17:15;99496.94;;;5.25;81.50
54806;BME280;62866;55.776;37.496;2023-03-22T04:19:41;99494.78;;;5.29;81.47
54806;BME280;62866;55.776;37.496;2023-03-22T04:22:12;99493.47;;;5.25;81.18
54806;BME280;62866;55.776;37.496;2023-03-22T04:24:41;99507.56;;;5.25;81.05
54806;BME280;62866;55.776;37.496;2023-03-22T04:27:07;99509.53;;;5.23;80.79
54806;BME280;62866;55.776;37.496;2023-03-22T04:29:36;99451.59;;;4.86;80.68
54806;BME280;62866;55.776;37.496;2023-03-22T04:32:02;99516.66;;;5.23;80.40
54806;BME280;62866;55.776;37.496;2023-03-22T04:34:28;99530.22;;;5.20;80.56
54806;BME280;62866;55.776;37.496;2023-03-22T04:36:53;99532.16;;;5.02;80.88
54806;BME280;62866;55.776;37.496;2023-03-22T04:39:19;99534.25;;;4.90;80.96
54806;BME280;62866;55.776;37.496;2023-03-22T04:41:45;99531.38;;;4.75;81.25
54806;BME280;62866;55.776;37.496;2023-03-22T04:44:10;99525.34;;;4.65;80.97
54806;BME280;62866;55.776;37.496;2023-03-22T04:46:36;99536.38;;;4.61;81.30
54806;BME280;62866;55.776;37.496;2023-03-22T04:49:03;99540.88;;;4.60;81.00
54806;BME280;62866;55.776;37.496;2023-03-22T04:51:29;99547.56;;;4.72;80.72
54806;BME280;62866;55.776;37.496;2023-03-22T04:53:56;99549.25;;;4.81;80.07
54806;BME280;62866;55.776;37.496;2023-03-22T04:56:22;99548.47;;;4.89;80.07
54806;BME280;62866;55.776;37.496;2023-03-22T04:58:48;99558.03;;;4.82;80.00
54806;BME280;62866;55.776;37.496;2023-03-22T05:01:15;99565.94;;;4.74;79.87
54806;BME280;62866;55.776;37.496;2023-03-22T05:03:41;99552.50;;;4.67;79.44
54806;BME280;62866;55.776;37.496;2023-03-22T05:06:12;99554.25;;;4.84;79.43
54806;BME280;62866;55.776;37.496;2023-03-22T05:08:38;99560.97;;;5.05;79.29
54806;BME280;62866;55.776;37.496;2023-03-22T05:11:14;99564.69;;;5.28;78.07
54806;BME280;62866;55.776;37.496;2023-03-22T05:13:44;99565.41;;;5.38;77.03
54806;BME280;62866;55.776;37.496;2023-03-22T05:16:10;99562.38;;;5.25;77.21
54806;BME280;62866;55.776;37.496;2023-03-22T05:18:36;99563.38;;;5.24;77.12
54806;BME280;62866;55.776;37.496;2023-03-22T05:21:15;99576.31;;;5.27;77.39
54806;BME280;62866;55.776;37.496;2023-03-22T05:23:43;99585.75;;;5.29;77.27
54806;BME280;62866;55.776;37.496;2023-03-22T05:26:10;99582.47;;;5.36;77.18
54806;BME280;62866;55.776;37.496;2023-03-22T05:28:41;99583.50;;;5.43;76.51
54806;BME280;62866;55.776;37.496;2023-03-22T05:31:07;99591.31;;;5.52;76.22
54806;BME280;62866;55.776;37.496;2023-03-22T05:33:34;99589.31;;;5.54;76.35
54806;BME280;62866;55.776;37.496;2023-03-22T05:36:00;99601.53;;;5.39;76.37
54806;BME280;62866;55.776;37.496;2023-03-22T05:38:26;99604.50;;;5.36;76.21
54806;BME280;62866;55.776;37.496;2023-03-22T05:40:51;99613.09;;;5.30;76.35
54806;BME280;62866;55.776;37.496;2023-03-22T05:43:17;99615.94;;;5.37;76.62
54806;BME280;62866;55.776;37.496;2023-03-22T05:45:43;99621.06;;;5.38;76.54
54806;BME280;62866;55.776;37.496;2023-03-22T05:48:10;99616.94;;;5.36;75.45
54806;BME280;62866;55.776;37.496;2023-03-22T05:50:36;99638.31;;;5.34;75.67
54806;BME280;62866;55.776;37.496;2023-03-22T05:53:02;99626.88;;;5.33;75.09
54806;BME280;62866;55.776;37.496;2023-03-22T05:55:28;99633.22;;;5.49;74.95
54806;BME280;62866;55.776;37.496;2023-03-22T05:57:54;99625.59;;;5.54;74.04
54806;BME280;62866;55.776;37.496;2023-03-22T06:00:21;99642.09;;;5.73;73.57
54806;BME280;62866;55.776;37.496;2023-03-22T06:02:48;99641.34;;;5.89;73.75
54806;BME280;62866;55.776;37.496;2023-03-22T06:05:16;99639.22;;;6.09;72.22
54806;BME280;62866;55.776;37.496;2023-03-22T06:07:43;99635.75;;;6.17;72.23
54806;BME280;62866;55.776;37.496;2023-03-22T06:10:13;99647.84;;;6.11;71.42
54806;BME280;62866;55.776;37.496;2023-03-22T06:12:39;99648.38;;;6.31;71.65
54806;BME280;62866;55.776;37.496;2023-03-22T06:15:06;99640.25;;;6.48;70.84
54806;BME280;62866;55.776;37.496;2023-03-22T06:17:32;99648.06;;;6.42;70.69
54806;BME280;62866;55.776;37.496;2023-03-22T06:19:58;99658.34;;;6.45;71.18
54806;BME280;62866;55.776;37.496;2023-03-22T06:22:23;99624.63;;;6.54;70.75
54806;BME280;62866;55.776;37.496;2023-03-22T06:24:49;99640.63;;;7.72;68.62
54806;BME280;62866;55.776;37.496;2023-03-22T06:27:15;99636.63;;;8.75;64.87
54806;BME280;62866;55.776;37.496;2023-03-22T06:29:42;99631.28;;;11.34;60.12
54806;BME280;62866;55.776;37.496;2023-03-22T06:32:08;99627.88;;;11.94;58.86
54806;BME280;62866;55.776;37.496;2023-03-22T06:34:34;99635.72;;;11.96;57.11
54806;BME280;62866;55.776;37.496;2023-03-22T06:37:00;99642.56;;;12.11;57.13
54806;BME280;62866;55.776;37.496;2023-03-22T06:39:26;99642.59;;;11.70;57.13
54806;BME280;62866;55.776;37.496;2023-03-22T06:41:51;99644.47;;;11.08;58.95
54806;BME280;62866;55.776;37.496;2023-03-22T06:44:17;99650.72;;;10.87;58.81
54806;BME280;62866;55.776;37.496;2023-03-22T06:46:43;99652.59;;;10.93;58.56
54806;BME280;62866;55.776;37.496;2023-03-22T06:49:08;99642.47;;;10.88;57.90
54806;BME280;62866;55.776;37.496;2023-03-22T06:51:34;99642.66;;;11.15;57.13
54806;BME280;62866;55.776;37.496;2023-03-22T06:54:00;99645.78;;;11.18;57.24
54806;BME280;62866;55.776;37.496;2023-03-22T06:56:26;99646.13;;;10.81;56.98
54806;BME280;62866;55.776;37.496;2023-03-22T06:58:52;99657.72;;;10.67;58.44
54806;BME280;62866;55.776;37.496;2023-03-22T07:01:21;99648.72;;;10.95;56.42
54806;BME280;62866;55.776;37.496;2023-03-22T07:03:47;99638.88;;;11.71;55.13
54806;BME280;62866;55.776;37.496;2023-03-22T07:06:14;99646.56;;;13.34;51.87
54806;BME280;62866;55.776;37.496;2023-03-22T07:08:39;99645.22;;;14.52;49.91
54806;BME280;62866;55.776;37.496;2023-03-22T07:11:05;99637.16;;;16.00;46.63
54806;BME280;62866;55.776;37.496;2023-03-22T07:13:31;99643.94;;;16.20;45.87
54806;BME280;62866;55.776;37.496;2023-03-22T07:15:58;99645.09;;;17.07;44.68
54806;BME280;62866;55.776;37.496;2023-03-22T07:18:25;99646.81;;;18.97;42.00
54806;BME280;62866;55.776;37.496;2023-03-22T07:20:51;99647.56;;;20.57;39.65
54806;BME280;62866;55.776;37.496;2023-03-22T07:23:17;99645.34;;;22.07;37.37
54806;BME280;62866;55.776;37.496;2023-03-22T07:25:44;99659.09;;;21.85;36.77
54806;BME280;62866;55.776;37.496;2023-03-22T07:28:10;99658.72;;;22.18;36.40
54806;BME280;62866;55.776;37.496;2023-03-22T07:30:37;99661.38;;;20.82;38.06
54806;BME280;62866;55.776;37.496;2023-03-22T07:33:05;99666.59;;;20.35;38.33
54806;BME280;62866;55.776;37.496;2023-03-22T07:35:31;99674.53;;;19.54;38.04
54806;BME280;62866;55.776;37.496;2023-03-22T07:37:57;99674.69;;;18.52;38.90
54806;BME280;62866;55.776;37.496;2023-03-22T07:40:23;99674.00;;;17.42;40.77
54806;BME280;62866;55.776;37.496;2023-03-22T07:42:49;99672.88;;;16.43;41.04
54806;BME280;62866;55.776;37.496;2023-03-22T07:45:16;99672.78;;;15.72;41.60
54806;BME280;62866;55.776;37.496;2023-03-22T07:47:42;99687.28;;;15.03;42.22
54806;BME280;62866;55.776;37.496;2023-03-22T07:50:08;99677.22;;;14.29;43.12
54806;BME280;62866;55.776;37.496;2023-03-22T07:52:37;99668.16;;;13.65;43.95
54806;BME280;62866;55.776;37.496;2023-03-22T07:55:03;99680.63;;;13.07;44.68
54806;BME280;62866;55.776;37.496;2023-03-22T07:57:29;99675.63;;;12.51;45.42
54806;BME280;62866;55.776;37.496;2023-03-22T07:59:54;99684.47;;;12.39;46.09
54806;BME280;62866;55.776;37.496;2023-03-22T08:02:21;99674.50;;;11.72;46.64
54806;BME280;62866;55.776;37.496;2023-03-22T08:04:47;99692.69;;;11.42;47.32
54806;BME280;62866;55.776;37.496;2023-03-22T08:07:14;99683.94;;;11.27;48.08
54806;BME280;62866;55.776;37.496;2023-03-22T08:09:42;99673.78;;;10.88;48.61
54806;BME280;62866;55.776;37.496;2023-03-22T08:12:08;99685.72;;;10.28;49.98
54806;BME280;62866;55.776;37.496;2023-03-22T08:14:34;99694.69;;;10.20;50.13
54806;BME280;62866;55.776;37.496;2023-03-22T08:16:59;99680.97;;;10.45;49.60
54806;BME280;62866;55.776;37.496;2023-03-22T08:19:25;99684.09;;;10.70;49.55
54806;BME280;62866;55.776;37.496;2023-03-22T08:21:52;99688.91;;;10.81;49.20
54806;BME280;62866;55.776;37.496;2023-03-22T08:24:17;99668.16;;;10.83;49.58
54806;BME280;62866;55.776;37.496;2023-03-22T08:26:43;99681.81;;;11.22;49.42
54806;BME280;62866;55.776;37.496;2023-03-22T08:29:10;99679.91;;;11.37;48.29
54806;BME280;62866;55.776;37.496;2023-03-22T08:31:35;99677.63;;;11.41;48.43
54806;BME280;62866;55.776;37.496;2023-03-22T08:34:01;99679.91;;;12.20;46.85
54806;BME280;62866;55.776;37.496;2023-03-22T08:36:26;99690.84;;;12.25;47.03
54806;BME280;62866;55.776;37.496;2023-03-22T08:38:53;99688.06;;;12.79;46.06
54806;BME280;62866;55.776;37.496;2023-03-22T08:41:19;99683.31;;;13.01;45.96
54806;BME280;62866;55.776;37.496;2023-03-22T08:43:44;99682.94;;;13.17;45.66
54806;BME280;62866;55.776;37.496;2023-03-22T08:46:10;99688.50;;;13.22;45.81
54806;BME280;62866;55.776;37.496;2023-03-22T08:48:35;99692.75;;;12.44;47.01
54806;BME280;62866;55.776;37.496;2023-03-22T08:51:03;99693.06;;;12.14;48.12
54806;BME280;62866;55.776;37.496;2023-03-22T08:53:30;99696.00;;;12.26;47.58
54806;BME280;62866;55.776;37.496;2023-03-22T08:55:56;99700.97;;;12.29;47.15
54806;BME280;62866;55.776;37.496;2023-03-22T08:58:26;99683.16;;;12.08;47.39
54806;BME280;62866;55.776;37.496;2023-03-22T09:00:52;99697.09;;;11.91;47.72
54806;BME280;62866;55.776;37.496;2023-03-22T09:03:18;99684.59;;;11.70;48.50
54806;BME280;62866;55.776;37.496;2023-03-22T09:05:44;99703.03;;;11.52;48.83
54806;BME280;62866;55.776;37.496;2023-03-22T09:08:10;99700.09;;;11.74;48.43
54806;BME280;62866;55.776;37.496;2023-03-22T09:10:37;99692.66;;;11.70;48.50
54806;BME280;62866;55.776;37.496;2023-03-22T09:13:04;99683.66;;;11.50;48.43
54806;BME280;62866;55.776;37.496;2023-03-22T09:15:30;99685.91;;;11.46;48.50
54806;BME280;62866;55.776;37.496;2023-03-22T09:17:55;99700.16;;;11.53;48.45
54806;BME280;62866;55.776;37.496;2023-03-22T09:20:21;99699.25;;;11.74;48.32
54806;BME280;62866;55.776;37.496;2023-03-22T09:22:50;99693.47;;;11.70;47.96
54806;BME280;62866;55.776;37.496;2023-03-22T09:25:16;99689.34;;;11.68;47.79
54806;BME280;62866;55.776;37.496;2023-03-22T09:27:41;99703.09;;;11.30;48.53
54806;BME280;62866;55.776;37.496;2023-03-22T09:30:07;99692.59;;;11.29;48.38
54806;BME280;62866;55.776;37.496;2023-03-22T09:32:33;99697.19;;;11.14;49.10
54806;BME280;62866;55.776;37.496;2023-03-22T09:34:58;99702.22;;;11.23;48.64
54806;BME280;62866;55.776;37.496;2023-03-22T09:37:25;99703.66;;;10.98;48.81
54806;BME280;62866;55.776;37.496;2023-03-22T09:39:55;99711.56;;;11.06;49.45
54806;BME280;62866;55.776;37.496;2023-03-22T09:44:53;99703.34;;;11.08;48.83
54806;BME280;62866;55.776;37.496;2023-03-22T09:47:29;99706.78;;;11.01;49.20
54806;BME280;62866;55.776;37.496;2023-03-22T09:50:04;99713.53;;;10.97;49.63
54806;BME280;62866;55.776;37.496;2023-03-22T09:52:31;99697.00;;;11.15;49.61
54806;BME280;62866;55.776;37.496;2023-03-22T09:54:57;99709.22;;;11.52;48.42
54806;BME280;62866;55.776;37.496;2023-03-22T09:57:34;99709.66;;;11.90;47.89
54806;BME280;62866;55.776;37.496;2023-03-22T10:08:13;99703.94;;;11.65;47.80
54806;BME280;62866;55.776;37.496;2023-03-22T10:10:42;99694.22;;;11.58;47.61
54806;BME280;62866;55.776;37.496;2023-03-22T10:16:03;99697.72;;;11.58;47.99
54806;BME280;62866;55.776;37.496;2023-03-22T10:21:07;99702.56;;;11.14;48.96
54806;BME280;62866;55.776;37.496;2023-03-22T10:24:03;99699.47;;;10.89;49.39
54806;BME280;62866;55.776;37.496;2023-03-22T10:26:37;99703.00;;;10.68;49.83
54806;BME280;62866;55.776;37.496;2023-03-22T10:29:10;99704.31;;;10.36;50.36
54806;BME280;62866;55.776;37.496;2023-03-22T10:31:38;99679.25;;;10.37;50.95
54806;BME280;62866;55.776;37.496;2023-03-22T10:34:27;99704.13;;;10.80;49.80
54806;BME280;62866;55.776;37.496;2023-03-22T10:36:57;99699.97;;;10.99;49.14
54806;BME280;62866;55.776;37.496;2023-03-22T10:39:37;99698.28;;;11.19;48.58
54806;BME280;62866;55.776;37.496;2023-03-22T10:42:15;99704.66;;;11.46;47.91
54806;BME280;62866;55.776;37.496;2023-03-22T10:44:49;99703.19;;;11.16;48.76
54806;BME280;62866;55.776;37.496;2023-03-22T10:47:27;99704.69;;;11.25;49.32
54806;BME280;62866;55.776;37.496;2023-03-22T10:49:54;99691.13;;;11.54;48.61
54806;BME280;62866;55.776;37.496;2023-03-22T10:55:02;99691.97;;;11.61;48.09
54806;BME280;62866;55.776;37.496;2023-03-22T10:57:28;99693.50;;;11.43;48.44
54806;BME280;62866;55.776;37.496;2023-03-22T10:59:54;99694.34;;;11.43;47.97
54806;BME280;62866;55.776;37.496;2023-03-22T11:02:31;99699.81;;;11.07;48.78
54806;BME280;62866;55.776;37.496;2023-03-22T11:04:59;99710.50;;;10.79;48.92
54806;BME280;62866;55.776;37.496;2023-03-22T11:07:45;99709.19;;;10.69;49.25
54806;BME280;62866;55.776;37.496;2023-03-22T11:10:26;99697.69;;;10.32;50.17
54806;BME280;62866;55.776;37.496;2023-03-22T11:15:31;99710.16;;;10.10;51.04
54806;BME280;62866;55.776;37.496;2023-03-22T11:18:04;99720.06;;;10.31;51.21
54806;BME280;62866;55.776;37.496;2023-03-22T11:20:31;99712.34;;;10.36;50.62
54806;BME280;62866;55.776;37.496;2023-03-22T11:23:00;99707.19;;;10.35;50.90
54806;BME280;62866;55.776;37.496;2023-03-22T11:25:33;99710.56;;;10.43;51.39
54806;BME280;62866;55.776;37.496;2023-03-22T11:28:09;99705.06;;;10.30;51.97
54806;BME280;62866;55.776;37.496;2023-03-22T11:30:39;99701.88;;;10.20;52.37
54806;BME280;62866;55.776;37.496;2023-03-22T11:33:18;99704.44;;;10.28;53.13
54806;BME280;62866;55.776;37.496;2023-03-22T11:35:51;99695.50;;;10.06;52.96
54806;BME280;62866;55.776;37.496;2023-03-22T11:38:33;99702.50;;;10.07;53.40
54806;BME280;62866;55.776;37.496;2023-03-22T11:41:00;99711.31;;;9.86;53.70
54806;BME280;62866;55.776;37.496;2023-03-22T11:43:33;99707.59;;;9.87;54.21
54806;BME280;62866;55.776;37.496;2023-03-22T11:45:59;99701.84;;;10.05;53.60
54806;BME280;62866;55.776;37.496;2023-03-22T11:48:28;99695.31;;;10.08;53.71
54806;BME280;62866;55.776;37.496;2023-03-22T11:53:32;99691.56;;;9.87;54.49
54806;BME280;62866;55.776;37.496;2023-03-22T11:56:00;99699.50;;;9.81;54.61
54806;BME280;62866;55.776;37.496;2023-03-22T11:58:41;99694.06;;;9.89;54.39
54806;BME280;62866;55.776;37.496;2023-03-22T12:01:14;99691.38;;;9.89;54.51
54806;BME280;62866;55.776;37.496;2023-03-22T12:03:45;99687.00;;;9.67;55.17
54806;BME280;62866;55.776;37.496;2023-03-22T12:06:35;99684.53;;;9.50;55.32
54806;BME280;62866;55.776;37.496;2023-03-22T12:09:24;99690.13;;;9.41;55.89
54806;BME280;62866;55.776;37.496;2023-03-22T12:11:55;99683.59;;;9.29;56.27
54806;BME280;62866;55.776;37.496;2023-03-22T12:14:25;99683.31;;;9.38;56.33
54806;BME280;62866;55.776;37.496;2023-03-22T12:17:05;99687.63;;;9.39;56.34
54806;BME280;62866;55.776;37.496;2023-03-22T12:22:19;99690.94;;;9.85;55.23
54806;BME280;62866;55.776;37.496;2023-03-22T12:24:45;99686.53;;;9.78;55.02
54806;BME280;62866;55.776;37.496;2023-03-22T12:27:24;99692.88;;;9.92;54.68
54806;BME280;62866;55.776;37.496;2023-03-22T12:30:18;99693.47;;;10.08;54.51
54806;BME280;62866;55.776;37.496;2023-03-22T12:32:53;99679.16;;;9.80;54.91
54806;BME280;62866;55.776;37.496;2023-03-22T12:35:26;99683.97;;;9.70;55.45
54806;BME280;62866;55.776;37.496;2023-03-22T12:37:55;99681.75;;;9.59;55.63
54806;BME280;62866;55.776;37.496;2023-03-22T12:40:26;99677.06;;;9.61;55.82
54806;BME280;62866;55.776;37.496;2023-03-22T12:43:34;99672.28;;;9.56;55.49
54806;BME280;62866;55.776;37.496;2023-03-22T12:45:58;99645.59;;;9.27;55.70
54806;BME280;62866;55.776;37.496;2023-03-22T12:48:38;99678.44;;;9.42;55.36
54806;BME280;62866;55.776;37.496;2023-03-22T12:51:09;99682.94;;;9.27;56.18
54806;BME280;62866;55.776;37.496;2023-03-22T12:53:40;99668.22;;;9.31;56.22
54806;BME280;62866;55.776;37.496;2023-03-22T12:56:13;99674.59;;;9.44;55.87
54806;BME280;62866;55.776;37.496;2023-03-22T12:58:42;99646.16;;;9.37;55.90
54806;BME280;62866;55.776;37.496;2023-03-22T13:01:38;99668.69;;;9.64;55.94
54806;BME280;62866;55.776;37.496;2023-03-22T13:30:33;99669.81;;;8.50;57.03
54806;BME280;62866;55.776;37.496;2023-03-22T13:33:11;99666.06;;;8.59;56.98
54806;BME280;62866;55.776;37.496;2023-03-22T13:35:53;99633.56;;;8.41;57.11
54806;BME280;62866;55.776;37.496;2023-03-22T13:38:31;99668.91;;;8.58;57.09
54806;BME280;62866;55.776;37.496;2023-03-22T13:41:33;99660.28;;;8.70;56.96
54806;BME280;62866;55.776;37.496;2023-03-22T13:43:55;99648.47;;;8.73;57.00
54806;BME280;62866;55.776;37.496;2023-03-22T13:54:02;99656.25;;;8.60;57.19
54806;BME280;62866;55.776;37.496;2023-03-22T13:59:00;99655.34;;;8.67;56.64
54806;BME280;62866;55.776;37.496;2023-03-22T14:04:00;99648.47;;;8.50;57.47
54806;BME280;62866;55.776;37.496;2023-03-22T14:06:29;99645.47;;;8.53;57.03
54806;BME280;62866;55.776;37.496;2023-03-22T14:09:34;99633.59;;;8.56;56.68
54806;BME280;62866;55.776;37.496;2023-03-22T14:14:31;99647.38;;;8.45;57.28
54806;BME280;62866;55.776;37.496;2023-03-22T14:20:24;99637.22;;;8.40;56.97
54806;BME280;62866;55.776;37.496;2023-03-22T14:22:57;99628.72;;;8.45;56.84
54806;BME280;62866;55.776;37.496;2023-03-22T14:25:26;99631.63;;;8.35;56.86
54806;BME280;62866;55.776;37.496;2023-03-22T14:27:53;99633.13;;;8.29;56.59
54806;BME280;62866;55.776;37.496;2023-03-22T14:33:00;99634.66;;;8.01;57.35
54806;BME280;62866;55.776;37.496;2023-03-22T14:35:40;99616.00;;;8.01;56.95
54806;BME280;62866;55.776;37.496;2023-03-22T14:38:25;99626.63;;;8.09;56.67
54806;BME280;62866;55.776;37.496;2023-03-22T14:41:12;99615.47;;;8.06;56.78
54806;BME280;62866;55.776;37.496;2023-03-22T14:43:39;99629.34;;;8.24;55.95
54806;BME280;62866;55.776;37.496;2023-03-22T14:48:34;99631.16;;;8.00;57.18
54806;BME280;62866;55.776;37.496;2023-03-22T14:51:05;99620.66;;;7.76;57.20
54806;BME280;62866;55.776;37.496;2023-03-22T14:53:37;99629.88;;;7.57;57.59
54806;BME280;62866;55.776;37.496;2023-03-22T14:56:17;99613.69;;;7.28;58.01
54806;BME280;62866;55.776;37.496;2023-03-22T14:58:45;99627.19;;;7.27;57.82
54806;BME280;62866;55.776;37.496;2023-03-22T15:01:20;99618.44;;;7.02;58.34